sensor_id;sensor_type;location;lat;lon;timestamp;temperature;humidity
18189;DHT22;9219;50.396;8.546;2022-11-25T00:00:28;8.60;99.90
18189;DHT22;9219;50.396;8.546;2022-11-25T00:02:56;8.50;99.90
18189;DHT22;9219;50.396;8.546;2022-11-25T00:05:24;8.40;99.90
18189;DHT22;9219;50.396;8.546;2022-11-25T00:07:54;8.40;99.90
18189;DHT22;9219;50.396;8.546;2022-11-25T00:10:23;8.50;99.90
18189;DHT22;9219;50.396;8.546;2022-11-25T00:12:54;8.70;99.90
18189;DHT22;9219;50.396;8.546;2022-11-25T00:15:21;8.80;99.90
18189;DHT22;9219;50.396;8.546;2022-11-25T00:20:44;8.70;99.90
18189;DHT22;9219;50.396;8.546;2022-11-25T00:23:14;8.80;99.90
18189;DHT22;9219;50.396;8.546;2022-11-25T00:25:43;8.70;99.90
18189;DHT22;9219;50.396;8.546;2022-11-25T00:28:10;8.70;99.90
18189;DHT22;9219;50.396;8.546;2022-11-25T00:30:38;8.70;99.90
18189;DHT22;9219;50.396;8.546;2022-11-25T00:33:06;8.80;99.90
18189;DHT22;9219;50.396;8.546;2022-11-25T00:35:34;8.70;99.90
18189;DHT22;9219;50.396;8.546;2022-11-25T00:38:02;8.70;99.90
18189;DHT22;9219;50.396;8.546;2022-11-25T00:45:41;8.70;99.90
18189;DHT22;9219;50.396;8.546;2022-11-25T00:48:09;8.50;99.90
18189;DHT22;9219;50.396;8.546;2022-11-25T00:50:36;8.40;99.90
18189;DHT22;9219;50.396;8.546;2022-11-25T00:53:05;8.40;99.90
18189;DHT22;9219;50.396;8.546;2022-11-25T00:55:33;8.50;99.90
18189;DHT22;9219;50.396;8.546;2022-11-25T00:58:21;8.70;99.90
18189;DHT22;9219;50.396;8.546;2022-11-25T01:00:50;8.90;99.90
18189;DHT22;9219;50.396;8.546;2022-11-25T01:06:10;8.90;99.90
18189;DHT22;9219;50.396;8.546;2022-11-25T01:08:38;9.00;99.90
18189;DHT22;9219;50.396;8.546;2022-11-25T01:11:08;8.90;99.90
18189;DHT22;9219;50.396;8.546;2022-11-25T01:13:37;8.90;99.90
18189;DHT22;9219;50.396;8.546;2022-11-25T01:16:05;8.90;99.90
18189;DHT22;9219;50.396;8.546;2022-11-25T01:18:34;8.60;99.90
18189;DHT22;9219;50.396;8.546;2022-11-25T01:21:05;8.40;99.90
18189;DHT22;9219;50.396;8.546;2022-11-25T01:29:11;8.10;99.90
18189;DHT22;9219;50.396;8.546;2022-11-25T01:31:40;8.10;99.90
18189;DHT22;9219;50.396;8.546;2022-11-25T01:34:12;8.00;99.90
18189;DHT22;9219;50.396;8.546;2022-11-25T01:36:40;8.10;99.90
18189;DHT22;9219;50.396;8.546;2022-11-25T01:39:15;8.10;99.90
18189;DHT22;9219;50.396;8.546;2022-11-25T01:41:44;8.20;99.90
18189;DHT22;9219;50.396;8.546;2022-11-25T01:44:15;8.30;99.90
18189;DHT22;9219;50.396;8.546;2022-11-25T01:49:34;8.30;99.90
18189;DHT22;9219;50.396;8.546;2022-11-25T01:52:12;8.20;99.90
18189;DHT22;9219;50.396;8.546;2022-11-25T01:54:49;8.10;99.90
18189;DHT22;9219;50.396;8.546;2022-11-25T01:57:22;8.20;99.90
18189;DHT22;9219;50.396;8.546;2022-11-25T01:59:54;8.10;99.90
18189;DHT22;9219;50.396;8.546;2022-11-25T02:02:23;8.20;99.90
18189;DHT22;9219;50.396;8.546;2022-11-25T02:04:52;8.20;99.90
18189;DHT22;9219;50.396;8.546;2022-11-25T02:15:00;8.00;99.90
18189;DHT22;9219;50.396;8.546;2022-11-25T02:17:28;8.00;99.90
18189;DHT22;9219;50.396;8.546;2022-11-25T02:20:00;8.00;99.90
18189;DHT22;9219;50.396;8.546;2022-11-25T02:22:38;8.10;99.90
18189;DHT22;9219;50.396;8.546;2022-11-25T02:25:13;8.20;99.90
18189;DHT22;9219;50.396;8.546;2022-11-25T02:27:43;8.20;99.90
18189;DHT22;9219;50.396;8.546;2022-11-25T02:30:12;8.20;99.90
18189;DHT22;9219;50.396;8.546;2022-11-25T02:32:42;8.10;99.90
18189;DHT22;9219;50.396;8.546;2022-11-25T02:38:46;7.90;99.90
18189;DHT22;9219;50.396;8.546;2022-11-25T02:41:17;7.90;99.90
18189;DHT22;9219;50.396;8.546;2022-11-25T02:43:46;7.90;99.90
18189;DHT22;9219;50.396;8.546;2022-11-25T02:46:16;7.80;99.90
18189;DHT22;9219;50.396;8.546;2022-11-25T02:48:49;7.80;99.90
18189;DHT22;9219;50.396;8.546;2022-11-25T02:51:38;7.80;99.90
18189;DHT22;9219;50.396;8.546;2022-11-25T02:54:07;7.60;99.90
18189;DHT22;9219;50.396;8.546;2022-11-25T02:56:35;7.80;99.90
18189;DHT22;9219;50.396;8.546;2022-11-25T03:04:07;7.80;99.90
18189;DHT22;9219;50.396;8.546;2022-11-25T03:06:34;8.00;99.90
18189;DHT22;9219;50.396;8.546;2022-11-25T03:09:02;8.00;99.90
18189;DHT22;9219;50.396;8.546;2022-11-25T03:11:29;8.10;99.90
18189;DHT22;9219;50.396;8.546;2022-11-25T03:14:15;8.00;99.90
18189;DHT22;9219;50.396;8.546;2022-11-25T03:16:42;7.90;99.90
18189;DHT22;9219;50.396;8.546;2022-11-25T03:19:11;7.90;99.90
18189;DHT22;9219;50.396;8.546;2022-11-25T03:21:39;7.90;99.90
18189;DHT22;9219;50.396;8.546;2022-11-25T03:29:11;7.80;99.90
18189;DHT22;9219;50.396;8.546;2022-11-25T03:31:38;7.80;99.90
18189;DHT22;9219;50.396;8.546;2022-11-25T03:34:07;7.80;99.90
18189;DHT22;9219;50.396;8.546;2022-11-25T03:36:34;7.80;99.90
18189;DHT22;9219;50.396;8.546;2022-11-25T03:39:02;7.80;99.90
18189;DHT22;9219;50.396;8.546;2022-11-25T03:41:29;7.80;99.90
18189;DHT22;9219;50.396;8.546;2022-11-25T03:43:57;7.80;99.90
18189;DHT22;9219;50.396;8.546;2022-11-25T03:46:29;7.70;99.90
18189;DHT22;9219;50.396;8.546;2022-11-25T03:54:02;7.80;99.90
18189;DHT22;9219;50.396;8.546;2022-11-25T03:56:30;7.80;99.90
18189;DHT22;9219;50.396;8.546;2022-11-25T03:58:57;7.80;99.90
18189;DHT22;9219;50.396;8.546;2022-11-25T04:01:25;7.80;99.90
18189;DHT22;9219;50.396;8.546;2022-11-25T04:03:52;7.60;99.90
18189;DHT22;9219;50.396;8.546;2022-11-25T04:06:20;7.70;99.90
18189;DHT22;9219;50.396;8.546;2022-11-25T04:08:49;7.70;99.90
18189;DHT22;9219;50.396;8.546;2022-11-25T04:16:25;7.90;99.90
18189;DHT22;9219;50.396;8.546;2022-11-25T04:18:52;7.70;99.90
18189;DHT22;9219;50.396;8.546;2022-11-25T04:21:20;7.90;99.90
18189;DHT22;9219;50.396;8.546;2022-11-25T04:23:47;7.70;99.90
18189;DHT22;9219;50.396;8.546;2022-11-25T04:26:15;7.80;99.90
18189;DHT22;9219;50.396;8.546;2022-11-25T04:28:42;7.80;99.90
18189;DHT22;9219;50.396;8.546;2022-11-25T04:31:10;7.70;99.90
18189;DHT22;9219;50.396;8.546;2022-11-25T04:33:38;7.70;99.90
18189;DHT22;9219;50.396;8.546;2022-11-25T04:41:13;8.00;99.90
18189;DHT22;9219;50.396;8.546;2022-11-25T04:43:41;7.90;99.90
18189;DHT22;9219;50.396;8.546;2022-11-25T04:46:11;7.90;99.90
18189;DHT22;9219;50.396;8.546;2022-11-25T04:48:41;7.90;99.90
18189;DHT22;9219;50.396;8.546;2022-11-25T04:51:08;7.90;99.90
18189;DHT22;9219;50.396;8.546;2022-11-25T04:53:35;7.70;99.90
18189;DHT22;9219;50.396;8.546;2022-11-25T04:56:04;7.50;99.90
18189;DHT22;9219;50.396;8.546;2022-11-25T05:04:25;7.60;99.90
18189;DHT22;9219;50.396;8.546;2022-11-25T05:06:53;7.50;99.90
18189;DHT22;9219;50.396;8.546;2022-11-25T05:09:21;7.70;99.90
18189;DHT22;9219;50.396;8.546;2022-11-25T05:11:49;7.80;99.90
18189;DHT22;9219;50.396;8.546;2022-11-25T05:14:16;7.90;99.90
18189;DHT22;9219;50.396;8.546;2022-11-25T05:16:44;8.10;99.90
18189;DHT22;9219;50.396;8.546;2022-11-25T05:19:15;8.10;99.90
18189;DHT22;9219;50.396;8.546;2022-11-25T05:27:04;7.70;99.90
18189;DHT22;9219;50.396;8.546;2022-11-25T05:29:32;8.10;99.90
18189;DHT22;9219;50.396;8.546;2022-11-25T05:32:00;8.00;99.90
18189;DHT22;9219;50.396;8.546;2022-11-25T05:34:28;8.10;99.90
18189;DHT22;9219;50.396;8.546;2022-11-25T05:36:55;8.30;99.90
18189;DHT22;9219;50.396;8.546;2022-11-25T05:39:23;8.30;99.90
18189;DHT22;9219;50.396;8.546;2022-11-25T05:41:51;8.10;99.90
18189;DHT22;9219;50.396;8.546;2022-11-25T05:44:21;8.00;99.90
18189;DHT22;9219;50.396;8.546;2022-11-25T05:51:53;8.10;99.90
18189;DHT22;9219;50.396;8.546;2022-11-25T05:54:21;8.00;99.90
18189;DHT22;9219;50.396;8.546;2022-11-25T05:56:48;7.90;99.90
18189;DHT22;9219;50.396;8.546;2022-11-25T05:59:16;7.60;99.90
18189;DHT22;9219;50.396;8.546;2022-11-25T06:01:44;7.60;99.90
18189;DHT22;9219;50.396;8.546;2022-11-25T06:04:12;7.50;99.90
18189;DHT22;9219;50.396;8.546;2022-11-25T06:06:39;7.30;99.90
18189;DHT22;9219;50.396;8.546;2022-11-25T06:09:08;7.30;99.90
18189;DHT22;9219;50.396;8.546;2022-11-25T06:16:42;7.80;99.90
18189;DHT22;9219;50.396;8.546;2022-11-25T06:19:09;8.40;99.90
18189;DHT22;9219;50.396;8.546;2022-11-25T06:21:37;8.50;99.90
18189;DHT22;9219;50.396;8.546;2022-11-25T06:24:05;8.50;99.90
18189;DHT22;9219;50.396;8.546;2022-11-25T06:26:32;8.50;99.90
18189;DHT22;9219;50.396;8.546;2022-11-25T06:29:00;8.50;99.90
18189;DHT22;9219;50.396;8.546;2022-11-25T06:31:27;8.20;99.90
18189;DHT22;9219;50.396;8.546;2022-11-25T06:39:16;7.80;99.90
18189;DHT22;9219;50.396;8.546;2022-11-25T06:41:44;7.30;99.90
18189;DHT22;9219;50.396;8.546;2022-11-25T06:44:12;7.40;99.90
18189;DHT22;9219;50.396;8.546;2022-11-25T06:46:40;7.20;99.90
18189;DHT22;9219;50.396;8.546;2022-11-25T06:49:08;7.40;99.90
18189;DHT22;9219;50.396;8.546;2022-11-25T06:51:36;7.50;99.90
18189;DHT22;9219;50.396;8.546;2022-11-25T06:54:04;7.70;99.90
18189;DHT22;9219;50.396;8.546;2022-11-25T06:56:33;7.70;99.90
18189;DHT22;9219;50.396;8.546;2022-11-25T07:04:06;8.10;99.90
18189;DHT22;9219;50.396;8.546;2022-11-25T07:06:34;7.70;99.90
18189;DHT22;9219;50.396;8.546;2022-11-25T07:09:01;7.80;99.90
18189;DHT22;9219;50.396;8.546;2022-11-25T07:11:31;8.00;99.90
18189;DHT22;9219;50.396;8.546;2022-11-25T07:13:59;8.10;99.90
18189;DHT22;9219;50.396;8.546;2022-11-25T07:16:28;8.20;99.90
18189;DHT22;9219;50.396;8.546;2022-11-25T07:18:57;8.20;99.90
18189;DHT22;9219;50.396;8.546;2022-11-25T07:27:32;8.30;99.90
18189;DHT22;9219;50.396;8.546;2022-11-25T07:29:59;8.50;99.90
18189;DHT22;9219;50.396;8.546;2022-11-25T07:32:46;8.50;99.90
18189;DHT22;9219;50.396;8.546;2022-11-25T07:35:15;8.50;99.90
18189;DHT22;9219;50.396;8.546;2022-11-25T07:37:46;8.30;99.90
18189;DHT22;9219;50.396;8.546;2022-11-25T07:40:14;8.40;99.90
18189;DHT22;9219;50.396;8.546;2022-11-25T07:42:44;8.50;99.90
18189;DHT22;9219;50.396;8.546;2022-11-25T07:45:11;8.40;99.90
18189;DHT22;9219;50.396;8.546;2022-11-25T07:52:44;8.60;99.90
18189;DHT22;9219;50.396;8.546;2022-11-25T07:55:12;8.70;99.90
18189;DHT22;9219;50.396;8.546;2022-11-25T07:57:39;8.80;99.90
18189;DHT22;9219;50.396;8.546;2022-11-25T08:00:11;8.90;99.90
18189;DHT22;9219;50.396;8.546;2022-11-25T08:02:39;9.10;99.90
18189;DHT22;9219;50.396;8.546;2022-11-25T08:05:08;9.00;99.90
18189;DHT22;9219;50.396;8.546;2022-11-25T08:07:36;9.10;99.90
18189;DHT22;9219;50.396;8.546;2022-11-25T08:15:34;9.20;99.90
18189;DHT22;9219;50.396;8.546;2022-11-25T08:16:32;9.10;99.90
18189;DHT22;9219;50.396;8.546;2022-11-25T08:19:53;9.30;99.90
18189;DHT22;9219;50.396;8.546;2022-11-25T09:34:17;9.60;99.90
18189;DHT22;9219;50.396;8.546;2022-11-25T09:36:47;9.90;99.90
18189;DHT22;9219;50.396;8.546;2022-11-25T09:39:14;9.70;99.90
18189;DHT22;9219;50.396;8.546;2022-11-25T09:41:58;9.90;99.90
18189;DHT22;9219;50.396;8.546;2022-11-25T09:44:59;9.80;99.90
18189;DHT22;9219;50.396;8.546;2022-11-25T09:47:55;9.90;99.90
18189;DHT22;9219;50.396;8.546;2022-11-25T09:50:39;10.00;99.90
18189;DHT22;9219;50.396;8.546;2022-11-25T09:53:21;10.10;99.90
18189;DHT22;9219;50.396;8.546;2022-11-25T10:11:21;9.90;99.90
18189;DHT22;9219;50.396;8.546;2022-11-25T10:13:55;9.90;99.90
18189;DHT22;9219;50.396;8.546;2022-11-25T10:16:32;9.90;99.90
18189;DHT22;9219;50.396;8.546;2022-11-25T10:19:04;9.90;99.90
18189;DHT22;9219;50.396;8.546;2022-11-25T10:21:32;9.90;99.90
18189;DHT22;9219;50.396;8.546;2022-11-25T10:24:00;10.10;99.90
18189;DHT22;9219;50.396;8.546;2022-11-25T10:26:35;10.20;99.90
18189;DHT22;9219;50.396;8.546;2022-11-25T10:34:18;10.00;99.90
18189;DHT22;9219;50.396;8.546;2022-11-25T10:36:50;9.80;99.90
18189;DHT22;9219;50.396;8.546;2022-11-25T10:39:21;9.20;99.90
18189;DHT22;9219;50.396;8.546;2022-11-25T10:41:54;9.10;99.90
18189;DHT22;9219;50.396;8.546;2022-11-25T10:44:25;9.00;99.90
18189;DHT22;9219;50.396;8.546;2022-11-25T10:47:05;9.20;99.90
18189;DHT22;9219;50.396;8.546;2022-11-25T10:49:50;9.00;99.90
18189;DHT22;9219;50.396;8.546;2022-11-25T11:08:39;8.50;99.90
18189;DHT22;9219;50.396;8.546;2022-11-25T11:11:19;8.80;99.90
18189;DHT22;9219;50.396;8.546;2022-11-25T11:13:48;8.70;99.90
18189;DHT22;9219;50.396;8.546;2022-11-25T11:16:25;8.80;99.90
18189;DHT22;9219;50.396;8.546;2022-11-25T11:18:56;8.50;99.90
18189;DHT22;9219;50.396;8.546;2022-11-25T11:21:29;8.50;99.90
18189;DHT22;9219;50.396;8.546;2022-11-25T11:24:21;8.80;99.90
18189;DHT22;9219;50.396;8.546;2022-11-25T11:32:54;9.30;99.90
18189;DHT22;9219;50.396;8.546;2022-11-25T11:36:02;9.20;99.90
18189;DHT22;9219;50.396;8.546;2022-11-25T11:39:27;9.30;99.90
18189;DHT22;9219;50.396;8.546;2022-11-25T11:42:05;9.60;99.90
18189;DHT22;9219;50.396;8.546;2022-11-25T11:45:02;9.80;99.90
18189;DHT22;9219;50.396;8.546;2022-11-25T11:47:49;10.00;99.90
18189;DHT22;9219;50.396;8.546;2022-11-25T11:50:29;9.80;99.90
18189;DHT22;9219;50.396;8.546;2022-11-25T11:53:45;9.60;99.90
18189;DHT22;9219;50.396;8.546;2022-11-25T12:02:30;9.70;99.90
18189;DHT22;9219;50.396;8.546;2022-11-25T12:05:11;10.10;99.90
18189;DHT22;9219;50.396;8.546;2022-11-25T12:07:46;10.00;99.90
18189;DHT22;9219;50.396;8.546;2022-11-25T12:10:21;10.00;99.90
18189;DHT22;9219;50.396;8.546;2022-11-25T12:12:54;9.80;99.90
18189;DHT22;9219;50.396;8.546;2022-11-25T12:15:34;9.60;99.90
18189;DHT22;9219;50.396;8.546;2022-11-25T12:18:15;9.80;99.90
18189;DHT22;9219;50.396;8.546;2022-11-25T12:20:52;9.60;99.90
18189;DHT22;9219;50.396;8.546;2022-11-25T12:28:34;9.90;99.90
18189;DHT22;9219;50.396;8.546;2022-11-25T12:31:10;10.00;99.90
18189;DHT22;9219;50.396;8.546;2022-11-25T12:33:45;9.90;99.90
18189;DHT22;9219;50.396;8.546;2022-11-25T12:36:20;9.60;99.90
18189;DHT22;9219;50.396;8.546;2022-11-25T12:38:52;9.70;99.90
18189;DHT22;9219;50.396;8.546;2022-11-25T12:41:25;9.60;99.90
18189;DHT22;9219;50.396;8.546;2022-11-25T12:44:05;9.70;99.90
18189;DHT22;9219;50.396;8.546;2022-11-25T15:25:55;11.20;99.90
18189;DHT22;9219;50.396;8.546;2022-11-25T15:28:23;11.30;99.90
18189;DHT22;9219;50.396;8.546;2022-11-25T15:30:58;11.10;99.90
18189;DHT22;9219;50.396;8.546;2022-11-25T15:33:27;11.10;99.90
18189;DHT22;9219;50.396;8.546;2022-11-25T15:35:56;10.70;99.90
18189;DHT22;9219;50.396;8.546;2022-11-25T15:38:36;10.60;99.90
18189;DHT22;9219;50.396;8.546;2022-11-25T15:41:12;10.50;99.90
18189;DHT22;9219;50.396;8.546;2022-11-25T16:01:50;10.70;99.90
18189;DHT22;9219;50.396;8.546;2022-11-25T16:04:19;10.90;99.90
18189;DHT22;9219;50.396;8.546;2022-11-25T16:06:53;10.90;99.90
18189;DHT22;9219;50.396;8.546;2022-11-25T16:09:23;10.60;99.90
18189;DHT22;9219;50.396;8.546;2022-11-25T16:12:03;10.70;99.90
18189;DHT22;9219;50.396;8.546;2022-11-25T16:14:34;10.70;99.90
18189;DHT22;9219;50.396;8.546;2022-11-25T16:20:19;10.50;99.90
18189;DHT22;9219;50.396;8.546;2022-11-25T16:22:49;10.60;99.90
18189;DHT22;9219;50.396;8.546;2022-11-25T16:25:17;10.70;99.90
18189;DHT22;9219;50.396;8.546;2022-11-25T16:27:46;10.70;99.90
18189;DHT22;9219;50.396;8.546;2022-11-25T16:30:18;10.60;99.90
18189;DHT22;9219;50.396;8.546;2022-11-25T16:32:51;10.70;99.90
18189;DHT22;9219;50.396;8.546;2022-11-25T16:35:26;10.60;99.90
18189;DHT22;9219;50.396;8.546;2022-11-25T16:40:36;10.70;99.90
18189;DHT22;9219;50.396;8.546;2022-11-25T16:43:12;10.20;99.90
18189;DHT22;9219;50.396;8.546;2022-11-25T16:45:48;10.20;99.90
18189;DHT22;9219;50.396;8.546;2022-11-25T16:48:19;10.30;99.90
18189;DHT22;9219;50.396;8.546;2022-11-25T16:50:50;10.50;99.90
18189;DHT22;9219;50.396;8.546;2022-11-25T16:53:20;10.40;99.90
18189;DHT22;9219;50.396;8.546;2022-11-25T16:55:51;10.40;99.90
18189;DHT22;9219;50.396;8.546;2022-11-25T17:03:28;10.30;99.90
18189;DHT22;9219;50.396;8.546;2022-11-25T17:05:56;10.40;99.90
18189;DHT22;9219;50.396;8.546;2022-11-25T17:08:25;10.40;99.90
18189;DHT22;9219;50.396;8.546;2022-11-25T17:10:54;10.30;99.90
18189;DHT22;9219;50.396;8.546;2022-11-25T17:13:24;10.10;99.90
18189;DHT22;9219;50.396;8.546;2022-11-25T17:15:57;10.20;99.90
18189;DHT22;9219;50.396;8.546;2022-11-25T17:18:26;10.40;99.90
18189;DHT22;9219;50.396;8.546;2022-11-25T17:25:58;10.50;99.90
18189;DHT22;9219;50.396;8.546;2022-11-25T17:28:27;10.60;99.90
18189;DHT22;9219;50.396;8.546;2022-11-25T17:30:55;10.70;99.90
18189;DHT22;9219;50.396;8.546;2022-11-25T17:33:23;10.40;99.90
18189;DHT22;9219;50.396;8.546;2022-11-25T17:35:51;10.10;99.90
18189;DHT22;9219;50.396;8.546;2022-11-25T17:38:20;10.10;99.90
18189;DHT22;9219;50.396;8.546;2022-11-25T17:40:47;10.10;99.90
18189;DHT22;9219;50.396;8.546;2022-11-25T17:48:20;10.00;99.90
18189;DHT22;9219;50.396;8.546;2022-11-25T17:50:50;10.00;99.90
18189;DHT22;9219;50.396;8.546;2022-11-25T17:53:18;10.00;99.90
18189;DHT22;9219;50.396;8.546;2022-11-25T17:55:45;10.10;99.90
18189;DHT22;9219;50.396;8.546;2022-11-25T17:58:13;9.80;99.90
18189;DHT22;9219;50.396;8.546;2022-11-25T18:00:42;9.80;99.90
18189;DHT22;9219;50.396;8.546;2022-11-25T18:03:11;9.90;99.90
18189;DHT22;9219;50.396;8.546;2022-11-25T18:08:57;9.90;99.90
18189;DHT22;9219;50.396;8.546;2022-11-25T18:15:02;9.60;99.90
18189;DHT22;9219;50.396;8.546;2022-11-25T18:18:08;9.30;99.90
18189;DHT22;9219;50.396;8.546;2022-11-25T18:20:51;9.00;99.90
18189;DHT22;9219;50.396;8.546;2022-11-25T18:23:27;8.70;99.90
18189;DHT22;9219;50.396;8.546;2022-11-25T18:26:03;8.50;99.90
18189;DHT22;9219;50.396;8.546;2022-11-25T18:28:39;8.70;99.90
18189;DHT22;9219;50.396;8.546;2022-11-25T18:47:19;8.60;99.90
18189;DHT22;9219;50.396;8.546;2022-11-25T18:49:50;8.80;99.90
18189;DHT22;9219;50.396;8.546;2022-11-25T18:52:22;8.80;99.90
18189;DHT22;9219;50.396;8.546;2022-11-25T18:54:50;8.90;99.90
18189;DHT22;9219;50.396;8.546;2022-11-25T18:57:17;8.90;99.90
18189;DHT22;9219;50.396;8.546;2022-11-25T18:59:45;8.90;99.90
18189;DHT22;9219;50.396;8.546;2022-11-25T19:02:27;8.80;99.90
18189;DHT22;9219;50.396;8.546;2022-11-25T19:10:01;8.60;99.90
18189;DHT22;9219;50.396;8.546;2022-11-25T19:12:29;8.70;99.90
18189;DHT22;9219;50.396;8.546;2022-11-25T19:14:57;8.60;99.90
18189;DHT22;9219;50.396;8.546;2022-11-25T19:17:24;8.50;99.90
18189;DHT22;9219;50.396;8.546;2022-11-25T19:19:52;8.40;99.90
18189;DHT22;9219;50.396;8.546;2022-11-25T19:22:19;8.40;99.90
18189;DHT22;9219;50.396;8.546;2022-11-25T19:24:48;8.10;99.90
18189;DHT22;9219;50.396;8.546;2022-11-25T19:27:19;8.00;99.90
18189;DHT22;9219;50.396;8.546;2022-11-25T19:36:51;7.90;99.90
18189;DHT22;9219;50.396;8.546;2022-11-25T19:39:19;8.40;99.90
18189;DHT22;9219;50.396;8.546;2022-11-25T19:41:47;8.20;99.90
18189;DHT22;9219;50.396;8.546;2022-11-25T19:44:22;8.20;99.90
18189;DHT22;9219;50.396;8.546;2022-11-25T19:46:49;8.20;99.90
18189;DHT22;9219;50.396;8.546;2022-11-25T19:49:47;8.00;99.90
18189;DHT22;9219;50.396;8.546;2022-11-25T19:52:30;7.90;99.90
18189;DHT22;9219;50.396;8.546;2022-11-25T19:55:01;8.00;99.90
18189;DHT22;9219;50.396;8.546;2022-11-25T20:00:50;7.90;99.90
18189;DHT22;9219;50.396;8.546;2022-11-25T20:03:21;7.60;99.90
18189;DHT22;9219;50.396;8.546;2022-11-25T20:05:51;7.70;99.90
18189;DHT22;9219;50.396;8.546;2022-11-25T20:08:21;7.60;99.90
18189;DHT22;9219;50.396;8.546;2022-11-25T20:10:49;7.70;99.90
18189;DHT22;9219;50.396;8.546;2022-11-25T20:13:17;7.70;99.90
18189;DHT22;9219;50.396;8.546;2022-11-25T20:15:46;7.60;99.90
18189;DHT22;9219;50.396;8.546;2022-11-25T20:23:25;7.70;99.90
18189;DHT22;9219;50.396;8.546;2022-11-25T20:25:56;7.70;99.90
18189;DHT22;9219;50.396;8.546;2022-11-25T20:28:28;7.70;99.90
18189;DHT22;9219;50.396;8.546;2022-11-25T20:30:57;7.70;99.90
18189;DHT22;9219;50.396;8.546;2022-11-25T20:33:26;7.90;99.90
18189;DHT22;9219;50.396;8.546;2022-11-25T20:36:02;7.80;99.90
18189;DHT22;9219;50.396;8.546;2022-11-25T20:38:33;7.70;99.90
18189;DHT22;9219;50.396;8.546;2022-11-25T20:54:17;7.60;99.90
18189;DHT22;9219;50.396;8.546;2022-11-25T20:56:55;7.80;99.90
18189;DHT22;9219;50.396;8.546;2022-11-25T20:59:25;7.80;99.90
18189;DHT22;9219;50.396;8.546;2022-11-25T21:01:56;7.80;99.90
18189;DHT22;9219;50.396;8.546;2022-11-25T21:04:26;7.80;99.90
18189;DHT22;9219;50.396;8.546;2022-11-25T21:06:54;7.90;99.90
18189;DHT22;9219;50.396;8.546;2022-11-25T21:09:32;7.90;99.90
18189;DHT22;9219;50.396;8.546;2022-11-25T21:12:00;7.90;99.90
18189;DHT22;9219;50.396;8.546;2022-11-25T21:17:14;8.00;99.90
18189;DHT22;9219;50.396;8.546;2022-11-25T21:19:42;8.20;99.90
18189;DHT22;9219;50.396;8.546;2022-11-25T21:22:12;8.40;99.90
18189;DHT22;9219;50.396;8.546;2022-11-25T21:24:43;8.60;99.90
18189;DHT22;9219;50.396;8.546;2022-11-25T21:27:15;8.50;99.90
18189;DHT22;9219;50.396;8.546;2022-11-25T21:29:50;8.20;99.90
18189;DHT22;9219;50.396;8.546;2022-11-25T21:32:23;8.10;99.90
18189;DHT22;9219;50.396;8.546;2022-11-25T21:40:03;7.90;99.90
18189;DHT22;9219;50.396;8.546;2022-11-25T21:42:32;7.80;99.90
18189;DHT22;9219;50.396;8.546;2022-11-25T21:44:59;7.80;99.90
18189;DHT22;9219;50.396;8.546;2022-11-25T21:47:28;8.10;99.90
18189;DHT22;9219;50.396;8.546;2022-11-25T21:49:57;7.90;99.90
18189;DHT22;9219;50.396;8.546;2022-11-25T21:52:25;8.20;99.90
18189;DHT22;9219;50.396;8.546;2022-11-25T21:54:53;7.80;99.90
18189;DHT22;9219;50.396;8.546;2022-11-25T22:12:27;8.00;99.90
18189;DHT22;9219;50.396;8.546;2022-11-25T22:15:03;8.00;99.90
18189;DHT22;9219;50.396;8.546;2022-11-25T22:17:31;7.90;99.90
18189;DHT22;9219;50.396;8.546;2022-11-25T22:19:59;7.90;99.90
18189;DHT22;9219;50.396;8.546;2022-11-25T22:22:32;7.70;99.90
18189;DHT22;9219;50.396;8.546;2022-11-25T22:25:00;7.80;99.90
18189;DHT22;9219;50.396;8.546;2022-11-25T22:27:29;7.70;99.90
18189;DHT22;9219;50.396;8.546;2022-11-25T22:32:42;7.80;99.90
18189;DHT22;9219;50.396;8.546;2022-11-25T22:35:15;7.90;99.90
18189;DHT22;9219;50.396;8.546;2022-11-25T22:37:44;7.80;99.90
18189;DHT22;9219;50.396;8.546;2022-11-25T22:40:19;7.70;99.90
18189;DHT22;9219;50.396;8.546;2022-11-25T22:42:49;7.70;99.90
18189;DHT22;9219;50.396;8.546;2022-11-25T22:45:21;7.70;99.90
18189;DHT22;9219;50.396;8.546;2022-11-25T22:47:52;7.80;99.90
18189;DHT22;9219;50.396;8.546;2022-11-25T22:50:22;7.70;99.90
18189;DHT22;9219;50.396;8.546;2022-11-25T23:08:21;7.60;99.90
18189;DHT22;9219;50.396;8.546;2022-11-25T23:10:50;7.90;99.90
18189;DHT22;9219;50.396;8.546;2022-11-25T23:13:18;7.90;99.90
18189;DHT22;9219;50.396;8.546;2022-11-25T23:15:48;7.90;99.90
18189;DHT22;9219;50.396;8.546;2022-11-25T23:18:24;7.90;99.90
18189;DHT22;9219;50.396;8.546;2022-11-25T23:20:52;7.90;99.90
18189;DHT22;9219;50.396;8.546;2022-11-25T23:23:22;7.90;99.90
18189;DHT22;9219;50.396;8.546;2022-11-25T23:33:18;8.00;99.90
18189;DHT22;9219;50.396;8.546;2022-11-25T23:35:49;7.90;99.90
18189;DHT22;9219;50.396;8.546;2022-11-25T23:38:41;7.90;99.90
18189;DHT22;9219;50.396;8.546;2022-11-25T23:41:13;7.90;99.90
18189;DHT22;9219;50.396;8.546;2022-11-25T23:43:41;7.70;99.90
18189;DHT22;9219;50.396;8.546;2022-11-25T23:46:12;7.90;99.90
18189;DHT22;9219;50.396;8.546;2022-11-25T23:48:43;8.00;99.90
18189;DHT22;9219;50.396;8.546;2022-11-25T23:54:38;7.90;99.90
18189;DHT22;9219;50.396;8.546;2022-11-25T23:57:25;8.10;99.90
18189;DHT22;9219;50.396;8.546;2022-11-25T23:59:56;8.00;99.90
